Stanberry, Missouri
Current Conditions -  °F | °C
As of 11:53 AM on Saturday 25 Oct 2014 (Local Time) from KSTJ Reporting Station
Clear Clear  
Wind Chill: 72°   Ceiling: Unl
Heat Index: 72°   Visibility: 10mi
Dew Point: 55°   Wind: 5mph
Humidity: 55%   Direction: 60°ENE
Pressure: 30.09"   Gusts: NA
Location:  40.22°N, 94.54°W
Report Text: KSTJ 251653Z 06004KT 10SM CLR 22/13 A3009 RMK AO2 SLP184 T02220128
Loading
Personal Weather Stations






























Interactive Weather Map
Tropical Storm Tracking
New forecast layout! Learn more

10-Day Weather Forecast

Advertisements
Track Severe Weather on mobile